Time;durP1;ratioP1;P1;durP2;ratioP2;P2;SDS_P1;SDS_P2;PMS_P1;PMS_P2;Temp;Humidity;BMP_temperature;BMP_pressure;BME280_temperature;BME280_humidity;BME280_pressure;Samples;Min_cycle;Max_cycle;Signal;HPM_P1;HPM_P2
2022/09/25 00:01:50;;;;;;;;;;;;;;;4.63;100.00;99242.13;5014188;28;19929;-87
2022/09/25 00:04:15;;;;;;;;;;;;;;;4.61;100.00;99246.56;5014877;28;20292;-88
2022/09/25 00:06:41;;;;;;;;;;;;;;;4.53;100.00;99245.88;5012718;28;20115;-86
2022/09/25 00:09:07;;;;;;;;;;;;;;;4.52;100.00;99237.16;5004758;28;20377;-86
2022/09/25 00:11:33;;;;;;;;;;;;;;;4.50;100.00;99252.09;5012607;28;20050;-87
2022/09/25 00:13:59;;;;;;;;;;;;;;;4.50;100.00;99257.34;5012518;28;20052;-87
2022/09/25 00:16:26;;;;;;;;;;;;;;;4.52;100.00;99258.16;5005465;28;19922;-86
2022/09/25 00:21:39;;;;;;;;;;;;;;;4.46;100.00;99244.34;5014895;28;19972;-86
2022/09/25 00:24:06;;;;;;;;;;;;;;;4.52;100.00;99246.78;5014695;28;20332;-87
2022/09/25 00:26:36;;;;;;;;;;;;;;;4.50;100.00;99240.72;5013846;28;20003;-90
2022/09/25 00:29:05;;;;;;;;;;;;;;;4.44;100.00;99241.75;5002695;28;19928;-86
2022/09/25 00:31:33;;;;;;;;;;;;;;;4.35;100.00;99245.47;5013367;28;19967;-90
2022/09/25 00:34:03;;;;;;;;;;;;;;;4.43;100.00;99244.41;5012270;28;19921;-88
2022/09/25 00:36:29;;;;;;;;;;;;;;;4.38;100.00;99244.53;5005064;28;19972;-85
2022/09/25 00:38:57;;;;;;;;;;;;;;;4.35;100.00;99241.97;5012784;28;20007;-89
2022/09/25 00:41:24;;;;;;;;;;;;;;;4.33;100.00;99249.03;5013585;28;20411;-88
2022/09/25 00:43:51;;;;;;;;;;;;;;;4.30;100.00;99243.88;5011674;28;19927;-85
2022/09/25 00:46:22;;;;;;;;;;;;;;;4.37;100.00;99237.56;5014332;28;19984;-85
2022/09/25 00:48:49;;;;;;;;;;;;;;;4.29;100.00;99242.13;5003112;28;19933;-88
2022/09/25 00:51:19;;;;;;;;;;;;;;;4.36;100.00;99238.47;5013097;28;19921;-88
2022/09/25 00:53:44;;;;;;;;;;;;;;;4.34;100.00;99240.25;5012539;28;19961;-88
2022/09/25 00:56:19;;;;;;;;;;;;;;;4.29;100.00;99239.50;5014494;28;20007;-90
2022/09/25 00:58:45;;;;;;;;;;;;;;;4.37;100.00;99240.19;5003196;28;19925;-87
2022/09/25 09:28:20;;;;;;;;;;;;;;;6.22;100.00;99265.41;5230878;23;20230;-85
2022/09/25 09:30:57;;;;;;;;;;;;;;;6.20;100.00;99262.81;4994104;28;19922;-85
2022/09/25 09:33:25;;;;;;;;;;;;;;;6.23;100.00;99269.78;5013461;28;20012;-87
2022/09/25 09:35:54;;;;;;;;;;;;;;;6.32;100.00;99264.22;5009928;28;20003;-84
2022/09/25 09:38:35;;;;;;;;;;;;;;;6.25;100.00;99276.69;5008408;28;19922;-85
2022/09/25 09:41:26;;;;;;;;;;;;;;;6.28;100.00;99265.22;4993999;28;19925;-84
2022/09/25 09:44:17;;;;;;;;;;;;;;;6.28;100.00;99267.84;5012877;28;19943;-85
2022/09/25 09:46:55;;;;;;;;;;;;;;;6.43;100.00;99269.97;5012241;28;19929;-85
2022/09/25 09:49:32;;;;;;;;;;;;;;;6.37;100.00;99272.78;5013517;28;19917;-88
2022/09/25 09:52:08;;;;;;;;;;;;;;;6.49;100.00;99268.88;4993146;28;19972;-89
2022/09/25 09:54:45;;;;;;;;;;;;;;;6.52;100.00;99268.78;5012502;28;19921;-89
2022/09/25 09:57:33;;;;;;;;;;;;;;;6.41;100.00;99269.13;4993785;28;19917;-91
2022/09/25 10:00:07;;;;;;;;;;;;;;;6.46;100.00;99268.97;4993578;28;19957;-91
2022/09/25 10:02:58;;;;;;;;;;;;;;;6.48;100.00;99277.69;4993923;28;19925;-91
2022/09/25 10:05:40;;;;;;;;;;;;;;;6.48;100.00;99277.69;5008259;28;19924;-88
2022/09/25 10:08:05;;;;;;;;;;;;;;;6.45;100.00;99276.03;4995831;28;20847;-87
2022/09/25 10:10:41;;;;;;;;;;;;;;;6.52;100.00;99274.88;5018837;28;20040;-88
2022/09/25 10:13:14;;;;;;;;;;;;;;;6.43;100.00;99269.09;5009003;28;20020;-88
2022/09/25 10:15:42;;;;;;;;;;;;;;;6.45;100.00;99269.91;4995200;28;19913;-88
2022/09/25 10:18:08;;;;;;;;;;;;;;;6.45;100.00;99270.75;4985867;28;20323;-87
2022/09/25 10:20:43;;;;;;;;;;;;;;;6.40;100.00;99271.81;4993202;28;19925;-88
2022/09/25 10:23:27;;;;;;;;;;;;;;;6.46;100.00;99268.97;4986116;28;20327;-90
2022/09/25 10:25:52;;;;;;;;;;;;;;;6.44;100.00;99271.66;4995546;28;19917;-91
2022/09/25 10:28:28;;;;;;;;;;;;;;;6.58;100.00;99278.25;5013854;28;20392;-91
2022/09/25 10:30:53;;;;;;;;;;;;;;;6.68;100.00;99274.38;5014648;28;19917;-93
2022/09/25 10:33:26;;;;;;;;;;;;;;;6.75;100.00;99275.00;4995432;28;19917;-86
2022/09/25 10:35:53;;;;;;;;;;;;;;;6.68;100.00;99274.38;4995355;28;20008;-86
2022/09/25 10:38:42;;;;;;;;;;;;;;;6.71;100.00;99275.09;5014388;28;19917;-94
2022/09/25 10:41:11;;;;;;;;;;;;;;;6.66;100.00;99274.41;5017900;28;20381;-90
2022/09/25 10:43:48;;;;;;;;;;;;;;;6.73;100.00;99281.19;5000368;28;19979;-90
2022/09/25 10:46:14;;;;;;;;;;;;;;;6.63;100.00;99276.31;5000459;28;19964;-92
2022/09/25 10:51:25;;;;;;;;;;;;;;;6.58;100.00;99273.81;5018692;28;20012;-89
2022/09/25 10:53:51;;;;;;;;;;;;;;;6.67;100.00;99267.38;5018677;28;19952;-86
2022/09/25 10:56:19;;;;;;;;;;;;;;;6.59;100.00;99269.41;4999232;28;19960;-88
2022/09/25 10:59:13;;;;;;;;;;;;;;;6.59;100.00;99267.66;4987581;28;19928;-95
2022/09/25 11:01:39;;;;;;;;;;;;;;;6.58;100.00;99268.56;4998773;28;20012;-90
2022/09/25 11:04:21;;;;;;;;;;;;;;;6.64;100.00;99265.72;5011300;28;19979;-89
2022/09/25 11:06:51;;;;;;;;;;;;;;;6.62;100.00;99272.81;5010205;28;19918;-89
2022/09/25 11:09:22;;;;;;;;;;;;;;;6.63;100.00;99276.31;4987676;28;19922;-89
2022/09/25 11:12:00;;;;;;;;;;;;;;;6.67;100.00;99268.25;4997273;28;20270;-89
2022/09/25 11:14:36;;;;;;;;;;;;;;;6.64;100.00;99276.25;4996461;28;19914;-89
2022/09/25 11:17:05;;;;;;;;;;;;;;;6.76;100.00;99282.00;5003359;28;19924;-89
2022/09/25 11:19:34;;;;;;;;;;;;;;;6.69;100.00;99279.56;5007889;28;19928;-91
2022/09/25 11:22:00;;;;;;;;;;;;;;;6.68;100.00;99277.00;5009240;28;20325;-88
2022/09/25 11:24:57;;;;;;;;;;;;;;;6.77;100.00;99275.81;5016876;28;19956;-90
2022/09/25 11:27:30;;;;;;;;;;;;;;;6.83;100.00;99286.13;4980271;28;20385;-86
2022/09/25 11:29:55;;;;;;;;;;;;;;;6.81;100.00;99293.22;4998693;28;20273;-83
2022/09/25 11:32:29;;;;;;;;;;;;;;;6.68;100.00;99282.25;5015020;28;19975;-89
2022/09/25 12:53:58;;;;;;;;;;;;;;;7.11;100.00;99299.16;5005876;28;20007;-92
2022/09/25 12:56:52;;;;;;;;;;;;;;;7.10;100.00;99308.00;5004647;28;19926;-86
2022/09/25 12:59:18;;;;;;;;;;;;;;;7.15;100.00;99306.06;4975526;28;19965;-83
2022/09/25 13:02:04;;;;;;;;;;;;;;;7.16;100.00;99306.91;5005080;28;19930;-85
2022/09/25 13:04:36;;;;;;;;;;;;;;;7.24;100.00;99312.75;5004849;28;19940;-85
2022/09/25 13:07:11;;;;;;;;;;;;;;;7.15;100.00;99313.97;5008937;28;19944;-87
2022/09/25 13:09:38;;;;;;;;;;;;;;;7.19;100.00;99306.78;5006315;28;19968;-87
2022/09/25 13:12:14;;;;;;;;;;;;;;;7.11;100.00;99314.13;4999057;28;20479;-88
2022/09/25 13:14:59;;;;;;;;;;;;;;;7.11;100.00;99309.69;4985713;28;19918;-83
2022/09/25 13:17:24;;;;;;;;;;;;;;;7.14;100.00;99314.88;4974466;28;20021;-85
2022/09/25 13:19:50;;;;;;;;;;;;;;;7.27;100.00;99317.91;5002672;28;20060;-83
2022/09/25 13:22:20;;;;;;;;;;;;;;;7.24;100.00;99315.38;4978018;28;20008;-83
2022/09/25 13:25:04;;;;;;;;;;;;;;;7.45;100.00;99319.00;4984321;28;20319;-82
2022/09/25 13:27:44;;;;;;;;;;;;;;;7.24;100.00;99315.38;4989279;28;19957;-84
2022/09/25 13:30:18;;;;;;;;;;;;;;;7.20;100.00;99317.28;5000550;28;19952;-83
2022/09/25 13:32:47;;;;;;;;;;;;;;;7.31;100.00;99311.63;4984696;28;20016;-85
2022/09/25 13:35:16;;;;;;;;;;;;;;;7.25;100.00;99311.84;4997175;28;19983;-88
2022/09/25 13:37:41;;;;;;;;;;;;;;;7.09;100.00;99312.41;4981679;28;19925;-87
2022/09/25 13:43:20;;;;;;;;;;;;;;;7.22;100.00;99318.06;5005289;28;20034;-84
2022/09/25 13:45:47;;;;;;;;;;;;;;;7.24;100.00;99321.53;4985473;28;19983;-85
2022/09/25 13:48:33;;;;;;;;;;;;;;;7.21;100.00;99324.28;4986840;28;19926;-82
2022/09/25 13:51:17;;;;;;;;;;;;;;;7.23;100.00;99329.50;4989798;28;20375;-85
2022/09/25 13:53:57;;;;;;;;;;;;;;;7.33;100.00;99315.06;4986041;28;19932;-82
2022/09/25 13:56:27;;;;;;;;;;;;;;;7.35;100.00;99317.63;5000287;28;19932;-82
2022/09/25 13:58:59;;;;;;;;;;;;;;;7.25;100.00;99312.69;4985978;28;19922;-84
2022/09/25 14:01:38;;;;;;;;;;;;;;;7.23;100.00;99318.97;5003292;28;20008;-82
2022/09/25 14:04:27;;;;;;;;;;;;;;;7.25;100.00;99317.13;5002037;28;19965;-81
2022/09/25 14:06:54;;;;;;;;;;;;;;;7.29;100.00;99316.06;4978964;28;19921;-83
2022/09/25 14:09:22;;;;;;;;;;;;;;;7.21;100.00;99315.50;4984114;28;20502;-84
2022/09/25 14:11:58;;;;;;;;;;;;;;;7.24;100.00;99315.38;5003410;28;20320;-87
2022/09/25 14:14:30;;;;;;;;;;;;;;;7.27;100.00;99310.88;4985488;28;19922;-86
2022/09/25 14:17:00;;;;;;;;;;;;;;;7.40;100.00;99313.94;4986256;28;19971;-83
2022/09/25 14:19:33;;;;;;;;;;;;;;;7.36;100.00;99314.09;4987707;28;20271;-83
2022/09/25 14:22:01;;;;;;;;;;;;;;;7.31;100.00;99308.09;4982405;28;19925;-88
2022/09/25 14:24:30;;;;;;;;;;;;;;;7.26;100.00;99300.41;4985669;28;19917;-90
2022/09/25 14:27:02;;;;;;;;;;;;;;;7.22;100.00;99310.16;4987056;28;19917;-82
2022/09/25 14:29:31;;;;;;;;;;;;;;;7.42;100.00;99306.81;4986176;28;19917;-82
2022/09/25 14:32:04;;;;;;;;;;;;;;;7.29;100.00;99305.53;4985138;28;19917;-82
2022/09/25 14:34:48;;;;;;;;;;;;;;;7.34;100.00;99303.59;4984046;28;19921;-83
2022/09/25 14:37:16;;;;;;;;;;;;;;;7.34;100.00;99300.97;4985955;28;19962;-85
2022/09/25 14:39:44;;;;;;;;;;;;;;;7.25;100.00;99301.31;4984887;28;20024;-82
2022/09/25 14:42:25;;;;;;;;;;;;;;;7.38;100.00;99296.44;5002792;28;19921;-83
2022/09/25 14:45:09;;;;;;;;;;;;;;;7.30;100.00;99299.34;4981027;28;19917;-83
2022/09/25 14:47:42;;;;;;;;;;;;;;;7.32;100.00;99301.94;4983450;28;20292;-82
2022/09/25 14:50:17;;;;;;;;;;;;;;;7.26;100.00;99300.41;5000489;28;20012;-84
2022/09/25 14:52:44;;;;;;;;;;;;;;;7.41;100.00;99297.16;4984856;28;19922;-89
2022/09/25 14:55:13;;;;;;;;;;;;;;;7.36;100.00;99293.84;4984897;28;19922;-84
2022/09/25 14:57:39;;;;;;;;;;;;;;;7.35;100.00;99297.41;4984144;28;20296;-85
2022/09/25 15:00:06;;;;;;;;;;;;;;;7.27;100.00;99294.19;5002205;28;19969;-83
2022/09/25 15:02:36;;;;;;;;;;;;;;;7.36;100.00;99300.91;4983588;28;19914;-85
2022/09/25 15:05:21;;;;;;;;;;;;;;;7.34;100.00;99308.00;4985915;28;19917;-82
2022/09/25 15:07:46;;;;;;;;;;;;;;;7.44;100.00;99302.31;4985127;28;19913;-82
2022/09/25 15:10:26;;;;;;;;;;;;;;;7.30;100.00;99299.34;4986286;28;19945;-82
2022/09/25 15:12:52;;;;;;;;;;;;;;;7.31;100.00;99295.81;4987376;28;19913;-85
2022/09/25 15:15:20;;;;;;;;;;;;;;;7.30;100.00;99286.19;4984104;28;19988;-85
2022/09/25 15:17:50;;;;;;;;;;;;;;;7.30;100.00;99287.97;4983579;28;19922;-86
2022/09/25 15:20:18;;;;;;;;;;;;;;;7.32;100.00;99288.75;4984443;28;19917;-86
2022/09/25 15:22:51;;;;;;;;;;;;;;;7.24;100.00;99289.03;4983493;28;19921;-88
2022/09/25 15:25:31;;;;;;;;;;;;;;;;;;;;;
2022/09/25 15:27:58;;;;;;;;;;;;;;;7.34;100.00;99284.28;5002321;28;19922;-89
2022/09/25 15:30:25;;;;;;;;;;;;;;;7.36;100.00;99288.59;4985423;28;19921;-88
2022/09/25 15:32:52;;;;;;;;;;;;;;;7.26;100.00;99292.50;4984436;28;19943;-89
2022/09/25 15:35:24;;;;;;;;;;;;;;;7.31;100.00;99290.53;5001033;28;19928;-86
2022/09/25 15:38:00;;;;;;;;;;;;;;;7.23;100.00;99282.91;4984047;28;19925;-85
2022/09/25 15:40:29;;;;;;;;;;;;;;;7.26;100.00;99281.94;4983617;28;19925;-87
2022/09/25 15:42:55;;;;;;;;;;;;;;;7.12;100.00;99286.88;4985030;28;19964;-86
2022/09/25 15:45:36;;;;;;;;;;;;;;;7.18;100.00;99289.25;5002217;28;19973;-86
2022/09/25 15:48:20;;;;;;;;;;;;;;;7.23;100.00;99290.81;4984202;28;20280;-87
2022/09/25 15:50:46;;;;;;;;;;;;;;;7.16;100.00;99286.69;4982877;28;19924;-87
2022/09/25 15:53:35;;;;;;;;;;;;;;;7.25;100.00;99290.75;5001932;28;20340;-87
2022/09/25 15:56:06;;;;;;;;;;;;;;;7.27;100.00;99291.56;4988032;28;19945;-86
2022/09/25 15:58:34;;;;;;;;;;;;;;;7.27;100.00;99289.81;4987742;28;19921;-87
2022/09/25 16:06:42;;;;;;;;;;;;;;;7.24;100.00;99294.31;5004611;28;19928;-86
2022/09/25 16:09:25;;;;;;;;;;;;;;;7.27;100.00;99294.19;5003494;28;19975;-86
2022/09/25 16:11:50;;;;;;;;;;;;;;;7.27;100.00;99289.81;4986070;28;19968;-87
2022/09/25 16:14:21;;;;;;;;;;;;;;;7.35;100.00;99286.84;4987357;28;20385;-87
2022/09/25 16:16:48;;;;;;;;;;;;;;;7.34;100.00;99281.63;4985903;28;19925;-87
2022/09/25 16:19:26;;;;;;;;;;;;;;;7.32;100.00;99292.25;4999677;28;19925;-87
2022/09/25 16:21:52;;;;;;;;;;;;;;;7.29;100.00;99297.63;5001821;28;20340;-88
2022/09/25 16:24:25;;;;;;;;;;;;;;;7.35;100.00;99286.84;4981397;28;19918;-86
2022/09/25 16:26:58;;;;;;;;;;;;;;;7.30;100.00;99286.19;4979663;28;19921;-87
2022/09/25 16:29:25;;;;;;;;;;;;;;;7.23;100.00;99293.47;4985042;28;19929;-87
2022/09/25 16:31:52;;;;;;;;;;;;;;;7.25;100.00;99290.75;4986354;28;19926;-87
2022/09/25 16:34:25;;;;;;;;;;;;;;;7.24;100.00;99284.66;4982753;28;19924;-87
2022/09/25 16:36:51;;;;;;;;;;;;;;;7.31;100.00;99290.53;4985014;28;19921;-87
2022/09/25 16:39:23;;;;;;;;;;;;;;;7.33;100.00;99286.06;4987151;28;19918;-86
2022/09/25 16:41:49;;;;;;;;;;;;;;;7.28;100.00;99286.22;5004908;28;19918;-86
2022/09/25 16:44:26;;;;;;;;;;;;;;;7.29;100.00;99281.81;4984528;28;19925;-86
2022/09/25 16:46:54;;;;;;;;;;;;;;;7.28;100.00;99282.75;4997210;28;19922;-86
2022/09/25 16:49:20;;;;;;;;;;;;;;;7.27;100.00;99276.63;4999217;28;19922;-86
2022/09/25 16:51:50;;;;;;;;;;;;;;;7.26;100.00;99281.94;4997240;28;19922;-84
2022/09/25 16:54:29;;;;;;;;;;;;;;;7.25;100.00;99280.22;4981778;28;20377;-86
2022/09/25 16:56:56;;;;;;;;;;;;;;;7.26;100.00;99280.16;4986057;28;20254;-87
2022/09/25 16:59:23;;;;;;;;;;;;;;;7.40;100.00;99278.78;5003669;28;19961;-86
2022/09/25 17:01:51;;;;;;;;;;;;;;;7.29;100.00;99279.16;4982606;28;19963;-92
2022/09/25 17:04:17;;;;;;;;;;;;;;;7.28;100.00;99283.59;4987116;28;19921;-88
2022/09/25 17:06:44;;;;;;;;;;;;;;;7.33;100.00;99272.03;4984027;28;19971;-87
2022/09/25 17:09:11;;;;;;;;;;;;;;;7.29;100.00;99276.53;4997242;28;19922;-87
2022/09/25 17:11:37;;;;;;;;;;;;;;;7.34;100.00;99274.63;4999526;28;19953;-87
2022/09/25 17:14:02;;;;;;;;;;;;;;;7.29;100.00;99276.53;4978853;28;20016;-87
2022/09/25 17:16:28;;;;;;;;;;;;;;;7.27;100.00;99281.00;4985454;28;19972;-88
2022/09/25 17:18:53;;;;;;;;;;;;;;;7.30;100.00;99278.28;4979080;28;19979;-87
2022/09/25 17:21:19;;;;;;;;;;;;;;;7.31;100.00;99281.75;4999903;28;19922;-88
2022/09/25 17:23:44;;;;;;;;;;;;;;;7.18;100.00;99281.34;4979551;28;20380;-88
2022/09/25 17:26:15;;;;;;;;;;;;;;;7.25;100.00;99290.75;4980980;28;19984;-87
2022/09/25 17:28:40;;;;;;;;;;;;;;;7.26;100.00;99287.22;4984712;28;20262;-86
2022/09/25 17:31:05;;;;;;;;;;;;;;;7.32;100.00;99284.34;4985977;28;19932;-88
2022/09/25 17:33:31;;;;;;;;;;;;;;;7.29;100.00;99287.06;4986194;28;19921;-87
2022/09/25 17:36:03;;;;;;;;;;;;;;;7.41;100.00;99286.63;4995361;28;19925;-87
2022/09/25 17:38:31;;;;;;;;;;;;;;;7.39;100.00;99285.84;4985459;28;20392;-86
2022/09/25 17:40:57;;;;;;;;;;;;;;;7.37;100.00;99290.31;4983021;28;20381;-87
2022/09/25 17:43:22;;;;;;;;;;;;;;;7.38;100.00;99291.16;5003328;28;20019;-88
2022/09/25 17:45:51;;;;;;;;;;;;;;;7.35;100.00;99288.63;4983248;28;20059;-88
2022/09/25 17:48:23;;;;;;;;;;;;;;;7.34;100.00;99293.06;5000963;28;20020;-86
2022/09/25 17:50:52;;;;;;;;;;;;;;;7.36;100.00;99296.50;4982725;28;20369;-89
2022/09/25 17:53:19;;;;;;;;;;;;;;;7.37;100.00;99295.59;4985309;28;19933;-87
2022/09/25 17:55:46;;;;;;;;;;;;;;;7.39;100.00;99296.38;4984640;28;19918;-88
2022/09/25 17:58:12;;;;;;;;;;;;;;;7.45;100.00;99303.19;5001119;28;19925;-87
2022/09/25 18:00:37;;;;;;;;;;;;;;;7.41;100.00;99307.72;4986377;28;19928;-87
2022/09/25 18:03:05;;;;;;;;;;;;;;;7.42;100.00;99304.16;4984563;28;20012;-90
2022/09/25 18:05:31;;;;;;;;;;;;;;;7.64;100.00;99303.34;4984089;28;19972;-87
2022/09/25 18:07:57;;;;;;;;;;;;;;;7.72;100.00;99297.78;4987690;28;20350;-86
2022/09/25 18:10:23;;;;;;;;;;;;;;;7.60;100.00;99296.47;4985887;28;19925;-85
2022/09/25 18:12:49;;;;;;;;;;;;;;;7.60;100.00;99291.22;4984487;28;20468;-86
2022/09/25 18:15:14;;;;;;;;;;;;;;;7.63;100.00;99293.72;5002303;28;20040;-85
2022/09/25 18:17:39;;;;;;;;;;;;;;;7.70;100.00;99295.19;5000616;28;19925;-84
2022/09/25 18:22:50;;;;;;;;;;;;;;;7.64;100.00;99300.69;4998386;28;19933;-86
2022/09/25 18:25:15;;;;;;;;;;;;;;;7.63;100.00;99293.72;4983644;28;19926;-92
2022/09/25 18:27:41;;;;;;;;;;;;;;;7.53;100.00;99297.63;4997195;28;19928;-88
2022/09/25 18:30:10;;;;;;;;;;;;;;;7.58;100.00;99308.88;4982563;28;19926;-84
2022/09/25 18:32:35;;;;;;;;;;;;;;;7.65;100.00;99307.72;5002265;28;19956;-85
2022/09/25 18:35:01;;;;;;;;;;;;;;;7.61;100.00;99308.72;4996662;28;19964;-85
2022/09/25 18:37:27;;;;;;;;;;;;;;;7.62;100.00;99305.19;4981418;28;19921;-84
2022/09/25 18:39:52;;;;;;;;;;;;;;;7.63;100.00;99306.91;4978828;28;19928;-85
2022/09/25 18:42:17;;;;;;;;;;;;;;;7.58;100.00;99311.50;4982661;28;19921;-84
2022/09/25 18:44:42;;;;;;;;;;;;;;;7.51;100.00;99315.28;4984776;28;20399;-85
2022/09/25 18:47:08;;;;;;;;;;;;;;;7.61;100.00;99314.00;4997610;28;20354;-85
2022/09/25 18:49:36;;;;;;;;;;;;;;;7.68;100.00;99310.22;4999872;28;19925;-85
2022/09/25 18:52:01;;;;;;;;;;;;;;;7.64;100.00;99313.88;4999578;28;20016;-85
2022/09/25 18:54:27;;;;;;;;;;;;;;;7.60;100.00;99312.31;4999226;28;20029;-83
2022/09/25 18:56:53;;;;;;;;;;;;;;;7.56;100.00;99310.69;5000215;28;19925;-85
2022/09/25 18:59:18;;;;;;;;;;;;;;;7.52;100.00;99317.88;5001342;28;19921;-84
2022/09/25 19:01:44;;;;;;;;;;;;;;;7.58;100.00;99322.06;4985535;28;20292;-88
2022/09/25 19:04:13;;;;;;;;;;;;;;;7.60;100.00;99313.16;4981485;28;20365;-85
2022/09/25 19:06:38;;;;;;;;;;;;;;;7.59;100.00;99315.84;4982488;28;19928;-85
2022/09/25 19:09:04;;;;;;;;;;;;;;;7.65;100.00;99315.63;5000656;28;19918;-86
2022/09/25 19:11:29;;;;;;;;;;;;;;;7.71;100.00;99315.38;5002566;28;19969;-86
2022/09/25 19:13:55;;;;;;;;;;;;;;;7.71;100.00;99317.16;4999485;28;19928;-86
2022/09/25 19:16:23;;;;;;;;;;;;;;;7.72;100.00;99319.75;4982363;28;20458;-84
2022/09/25 19:18:49;;;;;;;;;;;;;;;7.76;100.00;99309.94;4984480;28;19918;-85
2022/09/25 19:21:15;;;;;;;;;;;;;;;7.72;100.00;99316.22;5001248;28;19925;-84
2022/09/25 19:23:45;;;;;;;;;;;;;;;7.71;100.00;99318.03;5002668;28;20292;-85
2022/09/25 19:26:12;;;;;;;;;;;;;;;7.72;100.00;99327.66;5002277;28;20284;-87
2022/09/25 19:28:37;;;;;;;;;;;;;;;7.70;100.00;99324.19;5002199;28;19928;-86
2022/09/25 19:31:09;;;;;;;;;;;;;;;7.75;100.00;99316.97;5005824;28;19925;-86
2022/09/25 19:33:35;;;;;;;;;;;;;;;7.69;100.00;99321.63;5005688;28;19918;-86
2022/09/25 19:36:04;;;;;;;;;;;;;;;7.74;100.00;99320.53;5005273;28;19918;-85
2022/09/25 19:38:34;;;;;;;;;;;;;;;7.73;100.00;99318.81;4987599;28;19917;-85
2022/09/25 19:41:00;;;;;;;;;;;;;;;7.80;100.00;99316.78;4988355;28;19922;-86
2022/09/25 19:43:25;;;;;;;;;;;;;;;7.81;100.00;99321.16;4988170;28;20006;-86
2022/09/25 19:45:52;;;;;;;;;;;;;;;7.83;100.00;99316.66;4987155;28;20371;-85
2022/09/25 19:48:17;;;;;;;;;;;;;;;7.79;100.00;99323.00;5004851;28;20369;-85
2022/09/25 19:50:42;;;;;;;;;;;;;;;7.86;100.00;99323.63;5000400;28;19932;-85
2022/09/25 19:53:08;;;;;;;;;;;;;;;7.86;100.00;99334.16;5000702;28;19926;-85
2022/09/25 19:55:35;;;;;;;;;;;;;;;7.81;100.00;99318.53;5005965;28;19918;-85
2022/09/25 19:58:01;;;;;;;;;;;;;;;7.81;100.00;99321.16;4987259;28;19917;-88
2022/09/25 20:00:26;;;;;;;;;;;;;;;7.71;100.00;99317.16;4988726;28;19929;-85
2022/09/25 20:02:52;;;;;;;;;;;;;;;7.76;100.00;99323.13;4987828;28;19914;-85
2022/09/25 20:05:17;;;;;;;;;;;;;;;7.77;100.00;99325.69;4986807;28;19923;-85
2022/09/25 20:07:42;;;;;;;;;;;;;;;7.84;100.00;99325.47;4986571;28;20155;-85
2022/09/25 20:10:08;;;;;;;;;;;;;;;7.84;100.00;99326.31;5005770;28;19937;-84
2022/09/25 20:12:33;;;;;;;;;;;;;;;7.90;100.00;99335.78;5004369;28;19957;-86
2022/09/25 20:14:58;;;;;;;;;;;;;;;7.91;100.00;99329.56;5005587;28;20261;-85
2022/09/25 20:17:23;;;;;;;;;;;;;;;7.89;100.00;99323.50;4986967;28;19921;-85
2022/09/25 20:19:49;;;;;;;;;;;;;;;7.89;100.00;99326.13;4987718;28;19917;-86
2022/09/25 20:22:14;;;;;;;;;;;;;;;7.94;100.00;99326.81;4987126;28;20423;-85
2022/09/25 20:24:39;;;;;;;;;;;;;;;7.84;100.00;99323.69;4987436;28;20285;-85
2022/09/25 20:27:05;;;;;;;;;;;;;;;7.86;100.00;99310.44;4987675;28;20360;-84
2022/09/25 20:29:30;;;;;;;;;;;;;;;7.91;100.00;99319.00;4986910;28;20366;-85
2022/09/25 20:31:55;;;;;;;;;;;;;;;7.87;100.00;99309.53;4997969;28;20284;-85
2022/09/25 20:34:30;;;;;;;;;;;;;;;7.91;100.00;99311.94;4987866;28;19925;-87
2022/09/25 20:36:55;;;;;;;;;;;;;;;7.88;100.00;99311.22;4985843;28;20373;-86
2022/09/25 20:39:21;;;;;;;;;;;;;;;7.91;100.00;99306.69;5004060;28;19922;-85
2022/09/25 20:41:48;;;;;;;;;;;;;;;7.86;100.00;99300.72;5003884;28;19917;-85
2022/09/25 20:44:14;;;;;;;;;;;;;;;7.95;100.00;99302.16;5003835;28;20055;-85
2022/09/25 20:46:40;;;;;;;;;;;;;;;7.94;100.00;99303.06;5004998;28;19971;-84
2022/09/25 20:49:06;;;;;;;;;;;;;;;7.92;100.00;99308.41;4987248;28;19917;-85
2022/09/25 20:51:37;;;;;;;;;;;;;;;8.00;100.00;99301.03;4985991;28;19944;-85
2022/09/25 20:54:04;;;;;;;;;;;;;;;7.96;100.00;99299.47;4986860;28;19928;-85
2022/09/25 20:56:33;;;;;;;;;;;;;;;7.94;100.00;99298.63;4986581;28;19921;-85
2022/09/25 20:59:00;;;;;;;;;;;;;;;7.91;100.00;99295.28;4985822;28;19925;-85
2022/09/25 21:01:27;;;;;;;;;;;;;;;7.93;100.00;99301.34;5004702;28;19922;-85
2022/09/25 21:03:52;;;;;;;;;;;;;;;7.93;100.00;99293.44;5004370;28;19918;-85
2022/09/25 21:06:19;;;;;;;;;;;;;;;7.90;100.00;99289.16;4984948;28;19922;-85
2022/09/25 21:08:45;;;;;;;;;;;;;;;7.91;100.00;99290.84;4985782;28;19918;-84
2022/09/25 21:11:10;;;;;;;;;;;;;;;7.88;100.00;99290.13;4985550;28;19952;-85
2022/09/25 21:13:36;;;;;;;;;;;;;;;7.89;100.00;99292.69;4984056;28;20011;-85
2022/09/25 21:16:05;;;;;;;;;;;;;;;7.84;100.00;99291.19;5002750;28;20380;-85
2022/09/25 21:18:34;;;;;;;;;;;;;;;7.88;100.00;99290.13;4986103;28;19917;-86
2022/09/25 21:21:03;;;;;;;;;;;;;;;7.97;100.00;99289.75;5002791;28;19917;-89
2022/09/25 21:23:28;;;;;;;;;;;;;;;7.92;100.00;99283.81;4986601;28;19996;-86
2022/09/25 21:25:54;;;;;;;;;;;;;;;7.94;100.00;99284.59;4987329;28;20453;-86
2022/09/25 21:28:20;;;;;;;;;;;;;;;7.97;100.00;99279.19;4986690;28;19925;-86
2022/09/25 21:30:46;;;;;;;;;;;;;;;7.93;100.00;99277.59;4986652;28;20336;-86
2022/09/25 21:33:11;;;;;;;;;;;;;;;7.92;100.00;99270.63;4985815;28;19922;-86
2022/09/25 21:35:36;;;;;;;;;;;;;;;7.89;100.00;99273.38;5003299;28;19921;-85
2022/09/25 21:38:02;;;;;;;;;;;;;;;7.93;100.00;99278.47;4980008;28;19963;-86
2022/09/25 21:40:28;;;;;;;;;;;;;;;7.93;100.00;99275.84;4986010;28;19930;-85
2022/09/25 21:42:53;;;;;;;;;;;;;;;7.93;100.00;99272.31;4985778;28;20385;-85
2022/09/25 21:45:18;;;;;;;;;;;;;;;7.96;100.00;99274.84;4995972;28;19925;-85
2022/09/25 21:47:43;;;;;;;;;;;;;;;7.87;100.00;99272.59;4985791;28;19926;-86
2022/09/25 21:50:09;;;;;;;;;;;;;;;7.95;100.00;99275.78;4996664;28;19918;-85
2022/09/25 21:52:37;;;;;;;;;;;;;;;7.88;100.00;99269.00;4995096;28;19968;-86
2022/09/25 21:55:02;;;;;;;;;;;;;;;7.92;100.00;99270.63;4984918;28;19917;-85
2022/09/25 21:57:28;;;;;;;;;;;;;;;7.90;100.00;99277.75;5003811;28;19944;-85
2022/09/25 21:59:53;;;;;;;;;;;;;;;7.92;100.00;99270.63;4985091;28;19934;-86
2022/09/25 22:02:18;;;;;;;;;;;;;;;7.90;100.00;99265.41;5002536;28;19971;-87
2022/09/25 22:04:43;;;;;;;;;;;;;;;7.90;100.00;99272.47;4985794;28;19933;-86
2022/09/25 22:07:09;;;;;;;;;;;;;;;7.91;100.00;99263.63;5001502;28;19918;-86
2022/09/25 22:09:34;;;;;;;;;;;;;;;7.93;100.00;99262.66;4984331;28;19926;-86
2022/09/25 22:11:59;;;;;;;;;;;;;;;7.88;100.00;99258.47;4992980;28;20432;-86
2022/09/25 22:14:25;;;;;;;;;;;;;;;7.91;100.00;99258.34;4984395;28;19922;-86
2022/09/25 22:16:51;;;;;;;;;;;;;;;7.93;100.00;99252.09;4984699;28;20385;-85
2022/09/25 22:19:18;;;;;;;;;;;;;;;7.90;100.00;99260.13;4984850;28;19921;-84
2022/09/25 22:21:44;;;;;;;;;;;;;;;7.91;100.00;99259.19;5001174;28;19942;-85
2022/09/25 22:24:09;;;;;;;;;;;;;;;7.88;100.00;99258.47;4985008;28;19969;-86
2022/09/25 22:26:36;;;;;;;;;;;;;;;7.94;100.00;99258.22;4984118;28;20447;-86
2022/09/25 22:29:01;;;;;;;;;;;;;;;7.89;100.00;99265.47;4984465;28;19917;-84
2022/09/25 22:31:28;;;;;;;;;;;;;;;7.94;100.00;99266.13;4984884;28;19967;-86
2022/09/25 22:33:55;;;;;;;;;;;;;;;7.83;100.00;99261.28;5002668;28;19925;-84
2022/09/25 22:36:20;;;;;;;;;;;;;;;7.93;100.00;99265.28;4984007;28;19964;-84
2022/09/25 22:38:46;;;;;;;;;;;;;;;7.90;100.00;99269.84;4983973;28;19922;-84
2022/09/25 22:41:12;;;;;;;;;;;;;;;7.88;100.00;99259.34;4982956;28;20324;-85
2022/09/25 22:43:38;;;;;;;;;;;;;;;7.88;100.00;99261.97;5001904;28;19995;-85
2022/09/25 22:46:04;;;;;;;;;;;;;;;7.91;100.00;99253.91;4982355;28;20397;-85
2022/09/25 22:48:29;;;;;;;;;;;;;;;7.86;100.00;99255.03;4984302;28;19926;-85
2022/09/25 22:50:56;;;;;;;;;;;;;;;7.92;100.00;99254.78;5000645;28;19917;-84
2022/09/25 22:53:22;;;;;;;;;;;;;;;7.90;100.00;99254.84;4984117;28;20405;-84
2022/09/25 22:55:47;;;;;;;;;;;;;;;7.92;100.00;99254.78;4983947;28;19953;-90
2022/09/25 22:58:13;;;;;;;;;;;;;;;7.88;100.00;99248.78;4983870;28;20311;-85
2022/09/25 23:00:42;;;;;;;;;;;;;;;7.91;100.00;99250.44;4984252;28;19928;-85
2022/09/25 23:03:08;;;;;;;;;;;;;;;7.85;100.00;99242.75;5000373;28;20369;-89